• Join FlightAware (Why Join?)
  • Login
  • US Flag 
Rudolph Flight #1: Scheduled 
11:51PM EST


 

Airport Tracker/Info


-or-


 

Live Flight TrackerFlight Track Log ✈ N830QS ✈ 14-Aug-2013 ✈ KDSM - KCOS

Flight Track Log - Related Links

Times and Time Zones

All times are in EDT time to prevent confusion due to time zone crossing. See the N830QS flight status page for this flight to view local times or setup timezone preferences in your user account.

Time Position Orientation Groundspeed Altitude Reporting Facility
EDT Latitude Longitude Course Direction KTS MPH feet Rate Location/Type
03:59PM 41.4319 -93.6500 175° South 278 320 8,600  Level Minneapolis Center
04:00PM 41.4192 -93.7358 259° West 280 322 11,300 2,700 Climbing Minneapolis Center
04:01PM 41.3997 -93.8728 259° West 307 353 14,300 2,640 Climbing Minneapolis Center
04:02PM 41.3814 -93.9919 258° West 326 375 16,800 2,280 Climbing Minneapolis Center
04:03PM 41.3614 -94.1139 258° West 332 382 19,100 2,100 Climbing Minneapolis Center
04:04PM 41.3500 -94.2344 263° West 335 386 21,200 1,920 Climbing Minneapolis Center
04:05PM 41.3483 -94.3578 269° West 335 386 23,100 2,040 Climbing Minneapolis Center
04:06PM 41.3428 -94.5136 267° West 347 399 25,500 1,980 Climbing Minneapolis Center
04:07PM 41.3397 -94.6425 268° West 350 403 27,200 1,500 Climbing Minneapolis Center
04:08PM 41.3361 -94.7747 268° West 355 409 28,700 1,320 Climbing Minneapolis Center
04:09PM 41.3342 -94.9092 269° West 362 417 30,000 1,080 Climbing Minneapolis Center
04:10PM 41.3211 -95.0453 263° West 372 428 31,000 960 Climbing Minneapolis Center
04:11PM 41.2861 -95.1803 251° West 385 443 32,000 1,020 Climbing Minneapolis Center
04:12PM 41.2456 -95.3422 252° West 384 442 33,200 1,020 Climbing Minneapolis Center
04:13PM 41.2092 -95.4786 251° West 389 448 34,200 960 Climbing Minneapolis Center
04:14PM 41.1733 -95.6139 251° West 388 447 35,200 960 Climbing Minneapolis Center
04:15PM 41.1369 -95.7550 251° West 382 440 36,300 960 Climbing Minneapolis Center
04:16PM 41.1017 -95.8808 250° West 380 437 37,300 960 Climbing Minneapolis Center
04:17PM 41.0661 -96.0144 251° West 380 437 38,300 960 Climbing Minneapolis Center
04:18PM 41.0319 -96.1458 251° West 377 434 39,300 780 Climbing Minneapolis Center
04:19PM 40.9989 -96.2719 251° West 367 422 40,000 300 Climbing Minneapolis Center
04:20PM 40.9581 -96.4236 250° West 363 418 40,000  Level Minneapolis Center
04:21PM 40.9236 -96.5550 251° West 370 426 40,000  Level Minneapolis Center
04:22PM 40.8883 -96.6844 250° West 373 429 40,000  Level Minneapolis Center
04:23PM 40.8528 -96.8125 250° West 374 430 40,000  Level Minneapolis Center
04:24PM 40.8175 -96.9414 250° West 373 429 40,000  Level Minneapolis Center
04:26PM 40.7758 -97.0933 250° West 366 421 40,000  Level Minneapolis Center
04:27PM 40.7417 -97.2156 250° West 362 417 40,000  Level Minneapolis Center
04:28PM 40.6992 -97.3650 249° West 359 413 40,000  Level Minneapolis Center
04:29PM 40.6656 -97.4892 250° West 359 413 40,000  Level Minneapolis Center
04:30PM 40.6300 -97.6144 250° West 363 418 40,000  Level Minneapolis Center
04:31PM 40.5944 -97.7406 250° West 366 421 40,000  Level Minneapolis Center
04:32PM 40.5586 -97.8689 250° West 370 426 40,000  Level Minneapolis Center
04:33PM 40.5214 -97.9956 249° West 371 427 40,000  Level Minneapolis Center
04:34PM 40.4789 -98.1486 250° West 371 427 40,000  Level Minneapolis Center
04:35PM 40.4417 -98.2747 249° West 370 426 40,000  Level Minneapolis Center
04:36PM 40.4053 -98.4014 249° West 369 425 40,000  Level Minneapolis Center
04:37PM 40.3678 -98.5278 249° West 370 426 40,000  Level Minneapolis Center
04:38PM 40.3306 -98.6553 249° West 371 427 40,000  Level Minneapolis Center
04:39PM 40.2931 -98.7819 249° West 371 427 40,000  Level Minneapolis Center
04:40PM 40.2567 -98.9089 249° West 371 427 40,000  Level Minneapolis Center
04:41PM 40.2122 -99.0592 249° West 369 425 40,000  Level Minneapolis Center
04:42PM 40.1744 -99.1844 248° West 370 426 40,000  Level Minneapolis Center
04:43PM 40.1364 -99.3100 248° West 370 426 40,000  Level Minneapolis Center
04:44PM 40.0992 -99.4347 249° West 369 425 40,000  Level Denver Center
04:45PM 40.0536 -99.5850 248° West 370 426 40,000  Level Denver Center
04:46PM 40.0153 -99.7097 248° West 369 425 40,000  Level Denver Center
04:48PM 39.9781 -99.8328 248° West 365 420 40,000  Level Denver Center
04:49PM 39.9400 -99.9553 248° West 364 419 40,000  Level Denver Center
04:50PM 39.8953 -100.1014 248° West 362 417 40,000  Level Denver Center
04:51PM 39.8575 -100.2217 248° West 360 414 40,000  Level Denver Center
04:52PM 39.8167 -100.3536 248° West 360 414 40,000  Level Denver Center
04:53PM 39.7675 -100.5064 247° West 357 411 40,000 -420 Level Denver Center
04:54PM 39.7311 -100.6219 248° West 359 413 39,200 -1,020 Descending Denver Center
04:55PM 39.6906 -100.7536 248° West 351 404 38,000 -1,020 Descending Denver Center
04:56PM 39.6558 -100.8631 248° West 344 396 37,100 -960 Descending Denver Center
04:57PM 39.6142 -100.9917 247° West 345 397 36,000 -1,020 Descending Denver Center
04:58PM 39.5761 -101.1100 247° West 365 420 35,000 -1,020 Descending Denver Center
04:59PM 39.5303 -101.2528 247° West 379 436 33,900 -1,020 Descending Denver Center
05:00PM 39.4900 -101.3756 247° West 386 444 32,900 -1,080 Descending Denver Center
05:01PM 39.4447 -101.5169 248° West 379 436 31,700 -1,320 Descending Denver Center
05:02PM 39.4044 -101.6408 247° West 386 444 30,200 -1,560 Descending Denver Center
05:03PM 39.3597 -101.7850 248° West 388 447 28,500 -1,080 Descending Denver Center
05:04PM 39.3247 -101.9125 250° West 392 451 28,000 -300 Descending Denver Center
05:06PM 39.2797 -102.0653 249° West 405 466 28,000  Level Denver Center
05:07PM 39.2417 -102.1978 250° West 410 472 28,000  Level Denver Center
05:08PM 39.1972 -102.3497 249° West 408 470 28,000  Level Denver Center
05:09PM 39.1586 -102.4794 249° West 407 468 28,000  Level Denver Center
05:10PM 39.1139 -102.6331 249° West 408 470 28,000 -660 Level Denver Center
05:11PM 39.0994 -102.7575 262° West 396 456 26,700 -1,440 Descending Denver Center
05:12PM 39.0758 -102.8878 257° West 377 434 25,100 -1,500 Descending Denver Center
05:13PM 39.0486 -103.0431 257° West 371 427 23,600 -1,260 Descending Denver Center
05:14PM 39.0300 -103.1436 257° West 364 419 22,600 -1,260 Descending Denver Center
05:15PM 39.0022 -103.2961 257° West 365 420 21,100 -1,320 Descending Denver Center
05:16PM 38.9794 -103.4186 257° West 356 410 19,900 -1,200 Descending Denver Center
05:17PM 38.9575 -103.5375 257° West 346 398 18,400 -1,200 Descending Denver Center
05:18PM 38.9322 -103.6750 257° West 331 381 17,300 -1,080 Descending Denver Center
05:19PM 38.9072 -103.8119 257° West 330 380 16,000 -1,140 Descending Denver Center
05:20PM 38.8817 -103.9461 256° West 324 373 14,700 -1,020 Descending Denver Center
05:21PM 38.8717 -104.0489 263° West 305 351 13,900 -420 Descending Denver Center
05:22PM 38.8839 -104.1506 279° West 285 328 13,900 -900 Level Denver Center
05:24PM 38.8794 -104.2669 267° West 292 336 12,100 -2,040 Descending Denver Center
05:25PM 38.8744 -104.3633 266° West 288 331 9,800 -1,800 Descending Denver Center
05:26PM 38.8736 -104.4647 269° West 269 310 8,500 -1,080 Descending Denver Center
05:27PM 38.8733 -104.5464 270° West 253 291 7,600 -480 Descending Denver Center
05:28PM 38.8750 -104.6342 271° West 238 274 7,600 -120 Level Denver Center
05:29PM 38.8717 -104.6869 265° West 198 228 7,400 -300 Descending Denver Center
05:30PM 38.8492 -104.7275 235° Southwest 173 199 7,100 -300 Descending Denver Center
05:32PM 38.8000 -104.7000 252° West  Level FlightAware Approximate
05:39PM 38.8058 -104.7008 252° West  Level Estimated